Time;durP1;ratioP1;P1;durP2;ratioP2;P2;SDS_P1;SDS_P2;PMS_P1;PMS_P2;Temp;Humidity;BMP_temperature;BMP_pressure;BME280_temperature;BME280_humidity;BME280_pressure;Samples;Min_cycle;Max_cycle;Signal;HPM_P1;HPM_P2
2023/12/07 00:00:02;;;;;;;;;;;-0.90;68.50;;;;;;4571385;30;114651;-80
2023/12/07 00:02:31;;;;;;;;;;;-0.90;68.30;;;;;;4600149;30;114996;-79
2023/12/07 00:04:58;;;;;;;;;;;-0.90;68.10;;;;;;4599316;30;115143;-80
2023/12/07 00:07:25;;;;;;;;;;;-0.90;68.20;;;;;;4599579;30;114929;-80
2023/12/07 00:09:52;;;;;;;;;;;-0.90;68.20;;;;;;4600374;30;114819;-80
2023/12/07 00:12:19;;;;;;;;;;;-0.80;68.20;;;;;;4600556;30;114568;-78
2023/12/07 00:14:47;;;;;;;;;;;-0.80;68.20;;;;;;4598610;30;116242;-78
2023/12/07 00:17:14;;;;;;;;;;;-0.80;68.20;;;;;;4599572;30;115971;-80
2023/12/07 00:19:41;;;;;;;;;;;-0.80;68.30;;;;;;4602573;30;114612;-79
2023/12/07 00:22:09;;;;;;;;;;;-0.80;68.20;;;;;;4603352;30;114569;-78
2023/12/07 00:24:36;;;;;;;;;;;-0.70;68.10;;;;;;4602436;30;114985;-79
2023/12/07 00:27:03;;;;;;;;;;;-0.70;67.90;;;;;;4615473;30;117937;-79
2023/12/07 00:29:31;;;;;;;;;;;-0.70;67.80;;;;;;4587510;30;114272;-79
2023/12/07 00:31:58;;;;;;;;;;;-0.80;67.80;;;;;;4587222;30;114845;-80
2023/12/07 00:34:26;;;;;;;;;;;-0.70;67.80;;;;;;4602403;30;115006;-81
2023/12/07 00:36:53;;;;;;;;;;;-0.70;67.80;;;;;;4587126;30;117646;-80
2023/12/07 00:39:20;;;;;;;;;;;-0.80;67.70;;;;;;4602480;30;114377;-80
2023/12/07 00:41:47;;;;;;;;;;;-0.80;67.70;;;;;;4601962;30;114722;-79
2023/12/07 00:44:14;;;;;;;;;;;-0.70;67.60;;;;;;4580073;30;115093;-79
2023/12/07 00:46:41;;;;;;;;;;;-0.80;67.70;;;;;;4570832;30;114547;-80
2023/12/07 00:49:08;;;;;;;;;;;-0.70;67.80;;;;;;4587242;30;114159;-80
2023/12/07 00:51:35;;;;;;;;;;;-0.80;67.80;;;;;;4605397;30;115059;-79
2023/12/07 00:54:03;;;;;;;;;;;-0.80;67.80;;;;;;4584717;30;115275;-79
2023/12/07 00:56:30;;;;;;;;;;;-0.70;67.70;;;;;;4585131;30;115758;-78
2023/12/07 00:58:57;;;;;;;;;;;-0.70;67.70;;;;;;4586327;30;114615;-79
2023/12/07 01:01:25;;;;;;;;;;;-0.70;67.70;;;;;;4571003;30;114684;-79
2023/12/07 01:03:52;;;;;;;;;;;-0.70;67.70;;;;;;4596630;30;114904;-79
2023/12/07 01:06:19;;;;;;;;;;;-0.70;67.70;;;;;;4584243;30;115217;-79
2023/12/07 01:08:46;;;;;;;;;;;-0.70;67.60;;;;;;4598570;30;114632;-79
2023/12/07 01:11:14;;;;;;;;;;;-0.70;67.60;;;;;;4585950;30;114313;-78
2023/12/07 01:13:41;;;;;;;;;;;-0.70;67.50;;;;;;4585281;30;115533;-80
2023/12/07 01:16:08;;;;;;;;;;;-0.70;67.50;;;;;;4585104;30;115721;-79
2023/12/07 01:18:35;;;;;;;;;;;-0.80;67.50;;;;;;4584831;30;114731;-79
2023/12/07 01:21:03;;;;;;;;;;;-0.80;67.50;;;;;;4585880;30;114709;-78
2023/12/07 01:23:31;;;;;;;;;;;-0.80;67.50;;;;;;4584975;30;115013;-79
2023/12/07 01:26:01;;;;;;;;;;;-0.80;67.50;;;;;;4569861;30;114697;-77
2023/12/07 01:28:29;;;;;;;;;;;-0.80;67.50;;;;;;4570843;30;114260;-79
2023/12/07 01:30:57;;;;;;;;;;;-0.70;67.50;;;;;;4569263;30;114558;-81
2023/12/07 01:33:24;;;;;;;;;;;-0.80;67.60;;;;;;4584887;30;115642;-80
2023/12/07 01:35:51;;;;;;;;;;;-0.70;67.60;;;;;;4586057;30;114738;-80
2023/12/07 01:38:19;;;;;;;;;;;-0.80;67.50;;;;;;4584851;30;114576;-79
2023/12/07 01:40:46;;;;;;;;;;;-0.70;67.50;;;;;;4585726;30;114607;-78
2023/12/07 01:43:13;;;;;;;;;;;-0.70;67.50;;;;;;4583633;30;115062;-79
2023/12/07 01:45:41;;;;;;;;;;;-0.70;67.50;;;;;;4613723;30;117440;-79
2023/12/07 01:48:08;;;;;;;;;;;-0.70;67.50;;;;;;4587134;30;114681;-78
2023/12/07 01:50:36;;;;;;;;;;;-0.80;67.50;;;;;;4602302;30;114566;-78
2023/12/07 01:53:03;;;;;;;;;;;-0.80;67.40;;;;;;4601580;30;114991;-79
2023/12/07 01:55:33;;;;;;;;;;;-0.80;67.30;;;;;;4586624;30;114602;-78
2023/12/07 01:58:01;;;;;;;;;;;-0.90;67.30;;;;;;4602479;30;114328;-80
2023/12/07 02:00:29;;;;;;;;;;;-0.80;67.40;;;;;;4586970;30;114598;-78
2023/12/07 02:02:56;;;;;;;;;;;-0.80;67.40;;;;;;4586129;30;114995;-78
2023/12/07 02:05:23;;;;;;;;;;;-0.80;67.40;;;;;;4601061;30;114615;-79
2023/12/07 02:07:50;;;;;;;;;;;-0.80;67.40;;;;;;4600905;30;114696;-79
2023/12/07 02:10:18;;;;;;;;;;;-0.80;67.40;;;;;;4586191;30;114407;-78
2023/12/07 02:12:46;;;;;;;;;;;-0.80;67.40;;;;;;4601144;30;114982;-78
2023/12/07 02:15:14;;;;;;;;;;;-0.80;67.40;;;;;;4601104;30;114598;-79
2023/12/07 02:17:44;;;;;;;;;;;-0.80;67.40;;;;;;4586907;30;114483;-78
2023/12/07 02:20:28;;;;;;;;;;;-0.80;67.40;;;;;;4600947;30;114782;-81
2023/12/07 02:22:56;;;;;;;;;;;-0.80;67.40;;;;;;4600810;30;114875;-79
2023/12/07 02:25:23;;;;;;;;;;;-0.80;67.30;;;;;;4586313;30;114853;-78
2023/12/07 02:27:51;;;;;;;;;;;-0.80;67.20;;;;;;4602035;30;114313;-79
2023/12/07 02:30:18;;;;;;;;;;;-0.80;67.20;;;;;;4586392;30;114413;-77
2023/12/07 02:32:45;;;;;;;;;;;-0.80;67.20;;;;;;4585016;30;117105;-78
2023/12/07 02:35:12;;;;;;;;;;;-0.80;67.20;;;;;;4586001;30;114863;-78
2023/12/07 02:37:47;;;;;;;;;;;-0.90;67.20;;;;;;4569334;30;114261;-78
2023/12/07 02:40:17;;;;;;;;;;;-0.90;67.20;;;;;;4590558;30;114484;-78
2023/12/07 02:42:44;;;;;;;;;;;-0.90;67.20;;;;;;4585766;30;114940;-78
2023/12/07 02:45:12;;;;;;;;;;;-0.90;67.20;;;;;;4582975;30;115124;-79
2023/12/07 02:47:39;;;;;;;;;;;-0.90;67.20;;;;;;4585311;30;114359;-79
2023/12/07 02:50:07;;;;;;;;;;;-0.90;67.20;;;;;;4585230;30;114530;-78
2023/12/07 02:52:34;;;;;;;;;;;-0.90;67.30;;;;;;4568611;30;114960;-79
2023/12/07 02:55:05;;;;;;;;;;;-0.90;67.20;;;;;;4582557;30;114755;-78
2023/12/07 02:57:35;;;;;;;;;;;-0.90;67.20;;;;;;4584205;30;114597;-80
2023/12/07 03:00:07;;;;;;;;;;;-0.90;67.20;;;;;;4556531;30;114388;-81
2023/12/07 03:02:38;;;;;;;;;;;-0.90;67.30;;;;;;4583450;30;116425;-80
2023/12/07 03:05:05;;;;;;;;;;;-0.90;67.30;;;;;;4568346;30;115828;-80
2023/12/07 03:07:33;;;;;;;;;;;-0.90;67.30;;;;;;4569498;30;114457;-80
2023/12/07 03:10:01;;;;;;;;;;;-0.90;67.30;;;;;;4584498;30;114478;-78
2023/12/07 03:12:28;;;;;;;;;;;-0.90;67.30;;;;;;4567522;30;115777;-80
2023/12/07 03:14:55;;;;;;;;;;;-0.90;67.40;;;;;;4583523;30;115933;-78
2023/12/07 03:17:22;;;;;;;;;;;-0.80;67.40;;;;;;4573394;30;114797;-79
2023/12/07 03:19:49;;;;;;;;;;;-0.80;67.40;;;;;;4569890;30;114528;-80
2023/12/07 03:22:16;;;;;;;;;;;-0.80;67.40;;;;;;4583273;30;114949;-80
2023/12/07 03:24:49;;;;;;;;;;;-0.80;67.30;;;;;;4568172;30;115880;-78
2023/12/07 03:27:16;;;;;;;;;;;-0.80;67.40;;;;;;4569296;30;114611;-78
2023/12/07 03:29:43;;;;;;;;;;;-0.80;67.40;;;;;;4584100;30;114632;-79
2023/12/07 03:32:10;;;;;;;;;;;-0.80;67.40;;;;;;4582728;30;115139;-79
2023/12/07 03:34:37;;;;;;;;;;;-0.80;67.30;;;;;;4568359;30;117358;-78
2023/12/07 03:37:04;;;;;;;;;;;-0.80;67.30;;;;;;4584205;30;114587;-80
2023/12/07 03:39:32;;;;;;;;;;;-0.80;67.20;;;;;;4569325;30;114392;-78
2023/12/07 03:42:00;;;;;;;;;;;-0.90;67.10;;;;;;4568487;30;114603;-79
2023/12/07 03:44:27;;;;;;;;;;;-0.90;67.10;;;;;;4574448;30;114647;-79
2023/12/07 03:46:54;;;;;;;;;;;-0.90;67.00;;;;;;4551173;30;114651;-78
2023/12/07 03:49:21;;;;;;;;;;;-1.00;67.00;;;;;;4538734;30;114620;-78
2023/12/07 03:51:49;;;;;;;;;;;-1.00;67.10;;;;;;4566350;30;116789;-78
2023/12/07 03:54:16;;;;;;;;;;;-1.00;67.20;;;;;;4568456;30;114766;-79
2023/12/07 03:56:43;;;;;;;;;;;-1.00;67.30;;;;;;4570267;30;114507;-79
2023/12/07 03:59:10;;;;;;;;;;;-1.10;67.20;;;;;;4570198;30;114677;-79
2023/12/07 04:01:37;;;;;;;;;;;-1.10;67.30;;;;;;4569388;30;115684;-80
2023/12/07 04:04:04;;;;;;;;;;;-1.00;67.40;;;;;;4569596;30;114675;-77
2023/12/07 04:06:32;;;;;;;;;;;-1.10;67.40;;;;;;4568908;30;114644;-80
2023/12/07 04:08:59;;;;;;;;;;;-1.10;67.30;;;;;;4569955;30;114601;-79
2023/12/07 04:11:26;;;;;;;;;;;-1.00;67.20;;;;;;4553415;30;114920;-79
2023/12/07 04:13:53;;;;;;;;;;;-1.00;67.30;;;;;;4569117;30;115226;-80
2023/12/07 04:16:20;;;;;;;;;;;-1.10;67.40;;;;;;4570056;30;114452;-79
2023/12/07 04:18:47;;;;;;;;;;;-1.00;67.30;;;;;;4569710;30;114802;-80
2023/12/07 04:21:14;;;;;;;;;;;-1.00;67.40;;;;;;4569474;30;115078;-78
2023/12/07 04:23:42;;;;;;;;;;;-1.00;67.30;;;;;;4592873;30;114986;-79
2023/12/07 04:26:09;;;;;;;;;;;-1.00;67.30;;;;;;4578560;30;114268;-79
2023/12/07 04:28:36;;;;;;;;;;;-1.00;67.10;;;;;;4569299;30;114319;-78
2023/12/07 04:31:04;;;;;;;;;;;-1.00;67.20;;;;;;4540096;30;118938;-79
2023/12/07 04:33:31;;;;;;;;;;;-1.10;67.10;;;;;;4568186;30;115233;-78
2023/12/07 04:35:58;;;;;;;;;;;-1.10;67.30;;;;;;4553925;30;114651;-81
2023/12/07 04:38:25;;;;;;;;;;;-1.00;67.50;;;;;;4554293;30;114347;-80
2023/12/07 04:40:53;;;;;;;;;;;-1.10;67.40;;;;;;4568181;30;115391;-79
2023/12/07 04:43:20;;;;;;;;;;;-1.10;67.50;;;;;;4567223;30;114825;-79
2023/12/07 04:45:47;;;;;;;;;;;-1.10;67.70;;;;;;4569748;30;114572;-79
2023/12/07 04:48:14;;;;;;;;;;;-1.10;67.70;;;;;;4569225;30;114466;-79
2023/12/07 04:50:41;;;;;;;;;;;-1.00;67.50;;;;;;4568687;30;114973;-79
2023/12/07 04:53:09;;;;;;;;;;;-1.00;67.50;;;;;;4569057;30;114518;-80
2023/12/07 04:55:36;;;;;;;;;;;-1.00;67.40;;;;;;4554402;30;114557;-79
2023/12/07 04:58:03;;;;;;;;;;;-1.00;67.40;;;;;;4571111;30;114503;-80
2023/12/07 05:00:31;;;;;;;;;;;-0.90;67.40;;;;;;4571733;30;114988;-80
2023/12/07 05:02:59;;;;;;;;;;;-0.90;67.30;;;;;;4581661;30;115399;-78
2023/12/07 05:05:26;;;;;;;;;;;-1.00;67.20;;;;;;4568770;30;114717;-79
2023/12/07 05:07:53;;;;;;;;;;;-1.00;67.20;;;;;;4569307;30;114557;-78
2023/12/07 05:10:20;;;;;;;;;;;-1.00;67.40;;;;;;4568312;30;115486;-79
2023/12/07 05:12:47;;;;;;;;;;;-1.00;67.40;;;;;;4568269;30;114880;-80
2023/12/07 05:15:14;;;;;;;;;;;-1.00;67.30;;;;;;4569218;30;114904;-79
2023/12/07 05:17:41;;;;;;;;;;;-1.00;67.30;;;;;;4569291;30;114385;-78
2023/12/07 05:20:09;;;;;;;;;;;-1.00;67.30;;;;;;4568576;30;115111;-78
2023/12/07 05:22:36;;;;;;;;;;;-0.90;67.30;;;;;;4568576;30;114788;-79
2023/12/07 05:25:04;;;;;;;;;;;-0.90;67.30;;;;;;4568881;30;114446;-78
2023/12/07 05:27:32;;;;;;;;;;;-0.90;67.30;;;;;;4553354;30;114423;-80
2023/12/07 05:29:59;;;;;;;;;;;-0.90;67.20;;;;;;4568165;30;115410;-78
2023/12/07 05:32:26;;;;;;;;;;;-1.00;67.20;;;;;;4567874;30;114575;-78
2023/12/07 05:34:54;;;;;;;;;;;-1.00;67.30;;;;;;4553862;30;114689;-78
2023/12/07 05:37:21;;;;;;;;;;;-1.00;67.40;;;;;;4569143;30;114461;-80
2023/12/07 05:39:48;;;;;;;;;;;-0.90;67.40;;;;;;4568097;30;115387;-80
2023/12/07 05:42:15;;;;;;;;;;;-0.90;67.30;;;;;;4568246;30;116168;-80
2023/12/07 05:44:43;;;;;;;;;;;-1.00;67.30;;;;;;4563113;30;114731;-79
2023/12/07 05:47:10;;;;;;;;;;;-1.00;67.30;;;;;;4570276;30;114416;-81
2023/12/07 05:49:37;;;;;;;;;;;-1.00;67.40;;;;;;4568982;30;116984;-81
2023/12/07 05:52:04;;;;;;;;;;;-1.00;67.30;;;;;;4584427;30;115049;-80
2023/12/07 05:54:31;;;;;;;;;;;-1.00;67.30;;;;;;4570285;30;114680;-81
2023/12/07 05:56:59;;;;;;;;;;;-0.90;67.30;;;;;;4569913;30;114671;-79
2023/12/07 05:59:26;;;;;;;;;;;-1.00;67.20;;;;;;4584591;30;114884;-80
2023/12/07 06:01:53;;;;;;;;;;;-1.00;67.20;;;;;;4584577;30;115211;-79
2023/12/07 06:04:21;;;;;;;;;;;-0.90;67.20;;;;;;4585605;30;114226;-81
2023/12/07 06:06:48;;;;;;;;;;;-1.00;67.30;;;;;;4583436;30;114537;-80
2023/12/07 06:09:15;;;;;;;;;;;-1.00;67.40;;;;;;4583912;30;115250;-79
2023/12/07 06:11:42;;;;;;;;;;;-0.90;67.50;;;;;;4600543;30;116052;-77
2023/12/07 06:14:09;;;;;;;;;;;-0.90;67.50;;;;;;4586627;30;114522;-80
2023/12/07 06:16:36;;;;;;;;;;;-0.90;67.60;;;;;;4567950;30;114654;-80
2023/12/07 06:19:04;;;;;;;;;;;-0.90;67.60;;;;;;4583656;30;115055;-79
2023/12/07 06:21:33;;;;;;;;;;;-0.80;67.70;;;;;;4580992;30;114651;-80
2023/12/07 06:24:00;;;;;;;;;;;-0.80;67.60;;;;;;4569044;30;114608;-81
2023/12/07 06:26:27;;;;;;;;;;;-0.70;67.60;;;;;;4585118;30;114791;-82
2023/12/07 06:28:54;;;;;;;;;;;-0.80;67.50;;;;;;4583851;30;115998;-79
2023/12/07 06:31:42;;;;;;;;;;;-0.80;67.40;;;;;;4584865;30;115079;-79
2023/12/07 06:34:09;;;;;;;;;;;-0.80;67.40;;;;;;4601565;30;114548;-79
2023/12/07 06:36:36;;;;;;;;;;;-0.80;67.40;;;;;;4586144;30;114325;-80
2023/12/07 06:39:03;;;;;;;;;;;-0.70;67.50;;;;;;4582579;30;118350;-81
2023/12/07 06:41:30;;;;;;;;;;;-0.80;67.40;;;;;;4589918;30;114529;-79
2023/12/07 06:43:57;;;;;;;;;;;-0.80;67.30;;;;;;4601549;30;114412;-79
2023/12/07 06:46:25;;;;;;;;;;;-0.80;67.20;;;;;;4586787;30;114593;-78
2023/12/07 06:48:53;;;;;;;;;;;-0.80;67.10;;;;;;4592019;30;115335;-79
2023/12/07 06:51:20;;;;;;;;;;;-0.90;67.00;;;;;;4584046;30;114958;-79
2023/12/07 06:53:47;;;;;;;;;;;-0.90;67.10;;;;;;4592005;30;114740;-80
2023/12/07 06:56:14;;;;;;;;;;;-0.90;67.20;;;;;;4582232;30;114745;-79
2023/12/07 06:58:42;;;;;;;;;;;-0.90;67.10;;;;;;4558275;30;114869;-79
2023/12/07 07:01:09;;;;;;;;;;;-0.90;67.30;;;;;;4587973;30;116452;-79
2023/12/07 07:03:36;;;;;;;;;;;-0.90;67.30;;;;;;4590791;30;114544;-80
2023/12/07 07:06:03;;;;;;;;;;;-0.90;67.40;;;;;;4582333;30;114495;-79
2023/12/07 07:08:30;;;;;;;;;;;-0.90;67.30;;;;;;4580301;30;115206;-78
2023/12/07 07:10:58;;;;;;;;;;;-0.80;67.30;;;;;;4566588;30;117821;-80
2023/12/07 07:13:25;;;;;;;;;;;-0.90;67.20;;;;;;4582710;30;114858;-79
2023/12/07 07:15:52;;;;;;;;;;;-0.90;67.30;;;;;;4582844;30;114959;-80
2023/12/07 07:18:20;;;;;;;;;;;-0.80;67.40;;;;;;4583407;30;114922;-79
2023/12/07 07:20:47;;;;;;;;;;;-0.80;67.40;;;;;;4592050;30;115908;-80
2023/12/07 07:23:14;;;;;;;;;;;-0.80;67.30;;;;;;4589439;30;114659;-80
2023/12/07 07:25:41;;;;;;;;;;;-0.80;67.30;;;;;;4583595;30;114768;-78
2023/12/07 07:28:11;;;;;;;;;;;-0.80;67.40;;;;;;4552875;30;118062;-80
2023/12/07 07:30:38;;;;;;;;;;;-0.80;67.40;;;;;;4583792;30;115075;-81
2023/12/07 07:33:05;;;;;;;;;;;-0.80;67.40;;;;;;4567468;30;114706;-79
2023/12/07 07:35:32;;;;;;;;;;;-0.80;67.30;;;;;;4584395;30;114533;-80
2023/12/07 07:37:59;;;;;;;;;;;-0.80;67.20;;;;;;4582087;30;114813;-79
2023/12/07 07:40:27;;;;;;;;;;;-0.80;67.20;;;;;;4581874;30;114715;-79
2023/12/07 07:42:54;;;;;;;;;;;-0.80;67.10;;;;;;4583118;30;114434;-78
2023/12/07 07:45:21;;;;;;;;;;;-0.80;67.10;;;;;;4581761;30;114619;-80
2023/12/07 07:47:49;;;;;;;;;;;-0.80;67.10;;;;;;4583510;30;116208;-79
2023/12/07 07:50:17;;;;;;;;;;;-0.80;67.00;;;;;;4580179;30;115411;-79
2023/12/07 07:52:44;;;;;;;;;;;-0.80;67.10;;;;;;4582599;30;114388;-80
2023/12/07 07:55:12;;;;;;;;;;;-0.80;67.30;;;;;;4584074;30;114637;-80
2023/12/07 07:57:39;;;;;;;;;;;-0.80;67.20;;;;;;4582179;30;117925;-77
2023/12/07 08:00:08;;;;;;;;;;;-0.80;67.30;;;;;;4553206;30;118034;-78
2023/12/07 08:02:38;;;;;;;;;;;-0.70;67.30;;;;;;4567909;30;114952;-79
2023/12/07 08:05:06;;;;;;;;;;;-0.70;67.20;;;;;;4603964;30;114538;-78
2023/12/07 08:07:33;;;;;;;;;;;-0.70;67.20;;;;;;4578968;30;114341;-79
2023/12/07 08:10:01;;;;;;;;;;;-0.60;67.10;;;;;;4584526;30;114796;-78
2023/12/07 08:12:28;;;;;;;;;;;-0.70;67.10;;;;;;4590752;30;114787;-80
2023/12/07 08:14:56;;;;;;;;;;;-0.70;67.10;;;;;;4554724;30;114559;-79
2023/12/07 08:17:25;;;;;;;;;;;-0.70;67.10;;;;;;4580222;30;114981;-80
2023/12/07 08:19:52;;;;;;;;;;;-0.70;67.10;;;;;;4568618;30;117638;-78
2023/12/07 08:22:20;;;;;;;;;;;-0.70;67.20;;;;;;4584115;30;114733;-78
2023/12/07 08:24:47;;;;;;;;;;;-0.70;67.20;;;;;;4567810;30;114631;-78
2023/12/07 08:27:27;;;;;;;;;;;-0.70;67.10;;;;;;4583274;30;115409;-79
2023/12/07 08:29:54;;;;;;;;;;;-0.60;67.10;;;;;;4583341;30;114652;-79
2023/12/07 08:32:21;;;;;;;;;;;-0.60;67.10;;;;;;4584023;30;114541;-79
2023/12/07 08:34:49;;;;;;;;;;;-0.60;67.00;;;;;;4555019;30;114487;-79
2023/12/07 08:37:16;;;;;;;;;;;-0.50;67.10;;;;;;4576561;30;115656;-79
2023/12/07 08:39:43;;;;;;;;;;;-0.60;67.10;;;;;;4585887;30;117605;-79
2023/12/07 08:42:10;;;;;;;;;;;-0.50;67.10;;;;;;4603252;30;114520;-79
2023/12/07 08:44:37;;;;;;;;;;;-0.50;67.20;;;;;;4603190;30;114692;-80
2023/12/07 08:47:05;;;;;;;;;;;-0.40;67.20;;;;;;4602075;30;115379;-79
2023/12/07 08:49:32;;;;;;;;;;;-0.40;67.10;;;;;;4603031;30;114584;-79
2023/12/07 08:51:59;;;;;;;;;;;-0.40;67.20;;;;;;4603197;30;114456;-78
2023/12/07 08:54:46;;;;;;;;;;;-0.40;67.20;;;;;;4603013;30;114381;-78
2023/12/07 08:57:13;;;;;;;;;;;-0.30;67.20;;;;;;4586314;30;114998;-79
2023/12/07 08:59:40;;;;;;;;;;;-0.30;67.10;;;;;;4585617;30;114681;-79
2023/12/07 09:02:07;;;;;;;;;;;-0.30;67.20;;;;;;4571294;30;115167;-79
2023/12/07 09:04:36;;;;;;;;;;;-0.30;67.10;;;;;;4577670;30;114424;-79
2023/12/07 09:07:05;;;;;;;;;;;-0.30;67.10;;;;;;4590448;30;115907;-79
2023/12/07 09:09:33;;;;;;;;;;;-0.30;67.10;;;;;;4602256;30;114626;-79
2023/12/07 09:12:00;;;;;;;;;;;-0.20;67.10;;;;;;4594506;30;114506;-79
2023/12/07 09:14:29;;;;;;;;;;;-0.10;67.20;;;;;;4575523;30;114636;-80
2023/12/07 09:16:56;;;;;;;;;;;-0.10;67.20;;;;;;4601874;30;114998;-78
2023/12/07 09:19:23;;;;;;;;;;;-0.10;67.10;;;;;;4587152;30;114660;-80
2023/12/07 09:21:50;;;;;;;;;;;0.10;67.20;;;;;;4603896;30;114403;-80
2023/12/07 09:24:17;;;;;;;;;;;0.10;67.20;;;;;;4588678;30;114409;-80
2023/12/07 09:26:45;;;;;;;;;;;0.20;67.20;;;;;;4602685;30;114504;-80
2023/12/07 09:29:12;;;;;;;;;;;0.20;67.20;;;;;;4588812;30;114633;-80
2023/12/07 09:31:39;;;;;;;;;;;0.30;67.10;;;;;;4604152;30;114509;-79
2023/12/07 09:34:08;;;;;;;;;;;0.30;67.10;;;;;;4589230;30;114292;-80
2023/12/07 09:36:39;;;;;;;;;;;0.30;67.10;;;;;;4602831;30;115789;-79
2023/12/07 09:39:06;;;;;;;;;;;0.40;67.10;;;;;;4573844;30;116047;-80
2023/12/07 09:41:33;;;;;;;;;;;0.40;67.10;;;;;;4571841;30;114341;-79
2023/12/07 09:44:00;;;;;;;;;;;0.50;67.00;;;;;;4578562;30;114546;-80
2023/12/07 09:46:28;;;;;;;;;;;0.50;66.90;;;;;;4602275;30;115433;-79
2023/12/07 09:48:55;;;;;;;;;;;0.60;66.90;;;;;;4576640;30;115116;-79
2023/12/07 09:51:23;;;;;;;;;;;0.60;66.80;;;;;;4585095;30;114470;-79
2023/12/07 09:53:52;;;;;;;;;;;0.60;66.80;;;;;;4557367;30;114374;-79
2023/12/07 09:56:21;;;;;;;;;;;0.70;66.80;;;;;;4587916;30;114935;-79
2023/12/07 09:58:48;;;;;;;;;;;0.60;66.70;;;;;;4590591;30;115175;-79
2023/12/07 10:01:15;;;;;;;;;;;0.70;66.70;;;;;;4587591;30;114623;-78
2023/12/07 10:03:44;;;;;;;;;;;0.80;66.70;;;;;;4586830;30;114566;-77
2023/12/07 10:06:11;;;;;;;;;;;0.80;66.60;;;;;;4570749;30;117779;-79
2023/12/07 10:08:38;;;;;;;;;;;0.80;66.40;;;;;;4584642;30;115380;-79
2023/12/07 10:11:09;;;;;;;;;;;0.80;66.30;;;;;;4572020;30;114504;-79
2023/12/07 10:13:37;;;;;;;;;;;0.90;66.40;;;;;;4595876;30;114718;-78
2023/12/07 10:16:11;;;;;;;;;;;0.90;66.30;;;;;;4582916;30;117295;-78
2023/12/07 10:18:40;;;;;;;;;;;0.90;66.40;;;;;;4570082;30;117965;-79
2023/12/07 10:21:11;;;;;;;;;;;0.90;66.30;;;;;;4595098;30;114273;-80
2023/12/07 10:23:38;;;;;;;;;;;0.90;66.20;;;;;;4580537;30;114730;-79
2023/12/07 10:26:06;;;;;;;;;;;0.90;66.00;;;;;;4604493;30;115070;-79
2023/12/07 10:28:36;;;;;;;;;;;0.90;65.80;;;;;;4573017;30;114681;-78
2023/12/07 10:31:04;;;;;;;;;;;0.80;65.80;;;;;;4588431;30;114286;-80
2023/12/07 10:33:31;;;;;;;;;;;0.80;65.90;;;;;;4559800;30;114642;-80
2023/12/07 10:35:59;;;;;;;;;;;0.90;66.10;;;;;;4608452;30;114982;-80
2023/12/07 10:38:27;;;;;;;;;;;0.90;66.00;;;;;;4603794;30;115705;-81
2023/12/07 10:41:00;;;;;;;;;;;0.90;65.90;;;;;;4600935;30;114783;-79
2023/12/07 10:43:27;;;;;;;;;;;0.90;65.90;;;;;;4579206;30;114788;-80
2023/12/07 10:45:56;;;;;;;;;;;0.90;65.80;;;;;;4569871;30;136272;-82
2023/12/07 10:48:26;;;;;;;;;;;0.90;65.80;;;;;;4587423;30;114580;-79
2023/12/07 10:50:53;;;;;;;;;;;0.90;65.80;;;;;;4572067;30;114656;-79
2023/12/07 10:53:26;;;;;;;;;;;0.90;65.70;;;;;;4586521;30;114409;-80
2023/12/07 10:55:59;;;;;;;;;;;0.90;65.70;;;;;;4556754;30;118425;-78
2023/12/07 10:58:27;;;;;;;;;;;0.90;65.60;;;;;;4570398;30;114549;-79
2023/12/07 11:00:55;;;;;;;;;;;0.90;65.60;;;;;;4556953;30;114374;-80
2023/12/07 11:03:23;;;;;;;;;;;1.00;65.60;;;;;;4585346;30;114290;-79
2023/12/07 11:05:50;;;;;;;;;;;0.90;65.70;;;;;;4571203;30;114981;-80
2023/12/07 11:08:23;;;;;;;;;;;1.00;65.80;;;;;;4569308;30;118670;-80
2023/12/07 11:10:53;;;;;;;;;;;1.00;65.80;;;;;;4556389;30;114307;-78
2023/12/07 11:13:22;;;;;;;;;;;1.00;65.80;;;;;;4557077;30;114237;-77
2023/12/07 11:15:49;;;;;;;;;;;1.10;65.80;;;;;;4569126;30;117912;-81
2023/12/07 11:18:17;;;;;;;;;;;1.10;65.80;;;;;;4569752;30;114733;-80
2023/12/07 11:20:45;;;;;;;;;;;1.10;65.70;;;;;;4585959;30;114398;-79
2023/12/07 11:23:19;;;;;;;;;;;1.00;65.70;;;;;;4556748;30;114909;-79
2023/12/07 11:25:47;;;;;;;;;;;1.10;65.70;;;;;;4584430;30;114890;-78
2023/12/07 11:28:15;;;;;;;;;;;1.10;65.70;;;;;;4556089;30;114647;-77
2023/12/07 11:30:43;;;;;;;;;;;1.10;65.60;;;;;;4585422;30;114221;-78
2023/12/07 11:33:11;;;;;;;;;;;1.10;65.60;;;;;;4570044;30;114567;-80
2023/12/07 11:35:57;;;;;;;;;;;1.10;65.60;;;;;;4569659;30;117508;-78
2023/12/07 11:38:24;;;;;;;;;;;1.20;65.60;;;;;;4584680;30;115023;-79
2023/12/07 11:40:51;;;;;;;;;;;1.10;65.60;;;;;;4593681;30;114567;-79
2023/12/07 11:43:40;;;;;;;;;;;1.20;65.60;;;;;;4570136;30;114241;-79
2023/12/07 11:46:07;;;;;;;;;;;1.20;65.70;;;;;;4584899;30;115513;-80
2023/12/07 11:48:34;;;;;;;;;;;1.20;65.60;;;;;;4569469;30;115372;-79
2023/12/07 11:51:04;;;;;;;;;;;1.10;65.40;;;;;;4586027;30;114235;-78
2023/12/07 11:53:36;;;;;;;;;;;1.10;65.30;;;;;;4561524;30;114182;-79
2023/12/07 11:56:04;;;;;;;;;;;1.10;65.30;;;;;;4559213;30;115777;-79
2023/12/07 11:58:31;;;;;;;;;;;1.10;65.30;;;;;;4568904;30;114806;-78
2023/12/07 12:01:09;;;;;;;;;;;1.00;65.40;;;;;;4585266;30;114675;-78
2023/12/07 12:03:37;;;;;;;;;;;1.10;65.50;;;;;;4587445;30;114527;-80
2023/12/07 12:06:05;;;;;;;;;;;1.10;65.50;;;;;;4571520;30;118890;-80
2023/12/07 12:08:33;;;;;;;;;;;1.10;65.50;;;;;;4585982;30;117803;-78
2023/12/07 12:11:01;;;;;;;;;;;1.10;65.40;;;;;;4558714;30;114364;-79
2023/12/07 12:13:29;;;;;;;;;;;1.10;65.30;;;;;;4575028;30;114616;-78
2023/12/07 12:15:59;;;;;;;;;;;1.00;65.40;;;;;;4596560;30;114907;-79
2023/12/07 12:18:34;;;;;;;;;;;1.00;65.30;;;;;;4589087;30;114814;-79
2023/12/07 12:21:01;;;;;;;;;;;1.00;65.30;;;;;;4572888;30;114365;-79
2023/12/07 12:23:29;;;;;;;;;;;0.90;65.40;;;;;;4572700;30;114499;-81
2023/12/07 12:25:56;;;;;;;;;;;0.90;65.50;;;;;;4582393;30;115093;-80
2023/12/07 12:28:24;;;;;;;;;;;0.90;65.60;;;;;;4588721;30;115467;-81
2023/12/07 12:30:52;;;;;;;;;;;1.00;65.70;;;;;;4562149;30;114401;-81
2023/12/07 12:33:19;;;;;;;;;;;1.00;65.60;;;;;;4573785;30;114465;-80
2023/12/07 12:35:46;;;;;;;;;;;1.10;65.60;;;;;;4574179;30;114849;-80
2023/12/07 12:38:13;;;;;;;;;;;1.10;65.50;;;;;;4602148;30;114660;-80
2023/12/07 12:40:54;;;;;;;;;;;1.10;65.40;;;;;;4599286;30;115873;-81
2023/12/07 12:43:21;;;;;;;;;;;1.10;65.40;;;;;;4587502;30;114200;-79
2023/12/07 12:45:51;;;;;;;;;;;1.10;65.40;;;;;;4581647;30;115016;-81
2023/12/07 12:48:32;;;;;;;;;;;1.00;65.20;;;;;;4571181;30;114748;-80
2023/12/07 12:51:12;;;;;;;;;;;1.00;65.20;;;;;;4571697;30;114443;-81
2023/12/07 12:53:44;;;;;;;;;;;0.90;65.20;;;;;;4587301;30;114256;-80
2023/12/07 12:56:14;;;;;;;;;;;0.90;65.30;;;;;;4571297;30;117915;-81
2023/12/07 12:58:41;;;;;;;;;;;0.90;65.40;;;;;;4569930;30;114789;-80
2023/12/07 13:01:08;;;;;;;;;;;0.90;65.30;;;;;;4555764;30;114724;-80
2023/12/07 13:03:35;;;;;;;;;;;0.90;65.30;;;;;;4551627;30;114659;-80
2023/12/07 13:06:03;;;;;;;;;;;0.90;65.30;;;;;;4582660;30;115754;-81
2023/12/07 13:08:33;;;;;;;;;;;0.90;65.40;;;;;;4562831;30;114573;-79
2023/12/07 13:11:00;;;;;;;;;;;0.90;65.30;;;;;;4586473;30;114578;-80
2023/12/07 13:13:27;;;;;;;;;;;0.90;65.40;;;;;;4582337;30;114434;-81
2023/12/07 13:15:55;;;;;;;;;;;0.90;65.30;;;;;;4575121;30;114981;-79
2023/12/07 13:18:22;;;;;;;;;;;0.80;65.30;;;;;;4586298;30;114953;-82
2023/12/07 13:20:49;;;;;;;;;;;0.80;65.20;;;;;;4580882;30;114358;-80
2023/12/07 13:23:22;;;;;;;;;;;0.80;65.30;;;;;;4587377;30;114431;-80
2023/12/07 13:25:50;;;;;;;;;;;0.70;65.40;;;;;;4584403;30;115413;-80
2023/12/07 13:28:17;;;;;;;;;;;0.80;65.50;;;;;;4586090;30;115340;-80
2023/12/07 13:30:44;;;;;;;;;;;0.70;65.50;;;;;;4587318;30;114198;-81
2023/12/07 13:33:12;;;;;;;;;;;0.80;65.60;;;;;;4579517;30;114627;-81
2023/12/07 13:35:54;;;;;;;;;;;0.80;65.60;;;;;;4570434;30;116087;-79
2023/12/07 13:38:23;;;;;;;;;;;0.80;65.70;;;;;;4582120;30;114698;-80
2023/12/07 13:40:50;;;;;;;;;;;0.80;65.70;;;;;;4565802;30;116157;-79
2023/12/07 13:43:17;;;;;;;;;;;0.80;65.70;;;;;;4555592;30;114178;-81
2023/12/07 13:45:45;;;;;;;;;;;0.80;65.70;;;;;;4593612;30;115168;-80
2023/12/07 13:48:12;;;;;;;;;;;0.80;65.80;;;;;;4602278;30;116320;-79
2023/12/07 13:50:41;;;;;;;;;;;0.90;65.90;;;;;;4572703;30;114419;-79
2023/12/07 13:53:10;;;;;;;;;;;0.80;66.00;;;;;;4574056;30;114382;-80
2023/12/07 13:55:39;;;;;;;;;;;0.80;66.00;;;;;;4571364;30;115516;-78
2023/12/07 13:58:07;;;;;;;;;;;0.80;65.90;;;;;;4586008;30;114695;-79
2023/12/07 14:00:34;;;;;;;;;;;0.80;65.80;;;;;;4588158;30;114644;-79
2023/12/07 14:03:02;;;;;;;;;;;0.80;65.90;;;;;;4593181;30;114403;-80
2023/12/07 14:05:29;;;;;;;;;;;0.80;65.90;;;;;;4589030;30;115357;-80
2023/12/07 14:07:57;;;;;;;;;;;0.80;66.00;;;;;;4585795;30;114592;-79
2023/12/07 14:10:24;;;;;;;;;;;0.80;66.00;;;;;;4571535;30;114334;-80
2023/12/07 14:12:51;;;;;;;;;;;0.80;66.00;;;;;;4571345;30;114463;-80